ADDS METAR Data INFO
IDs: Format: Raw Decoded Include TAF

Data at: 0021 UTC 11 Dec 2017

K0V4 110015Z AUTO 22004KT 10SM BKN110 02/M03 A3008 RMK AO1 T00151035
K0V4 102355Z AUTO 20004KT 10SM OVC110 01/M03 A3008 RMK AO1 T00121035 10044 20003
K0V4 102335Z AUTO 00000KT 10SM SCT110 01/M04 A3008 RMK AO1 T00081039
K0V4 102315Z AUTO 19003KT 10SM SCT110 01/M04 A3008 RMK AO1 T00111039
K0V4 102255Z AUTO 20004KT 10SM CLR 02/M04 A3008 RMK AO1 T00201040
K0V4 102235Z AUTO 18004KT 10SM CLR 02/M04 A3008 RMK AO1 T00231041
K0V4 102215Z AUTO 21004KT 10SM CLR 03/M04 A3008 RMK AO1 T00301043
K0V4 102155Z AUTO 22007KT 10SM CLR 04/M05 A3008 RMK AO1 T00361048
K0V4 102135Z AUTO 23009KT 10SM CLR 04/M05 A3008 RMK AO1 T00411047
K0V4 102115Z AUTO 23007KT 10SM CLR 04/M05 A3008 RMK AO1 T00421050
K0V4 102055Z AUTO 25006KT 10SM CLR 04/M05 A3008 RMK AO1 T00411048
K0V4 102035Z AUTO 24009KT 10SM CLR 04/M05 A3008 RMK AO1 T00441052
K0V4 102015Z AUTO 25010KT 10SM CLR 04/M05 A3008 RMK AO1 T00421046
K0V4 101955Z AUTO 23007KT 10SM CLR 04/M05 A3008 RMK AO1 T00421049
K0V4 101935Z AUTO 26008KT 10SM CLR 04/M05 A3008 RMK AO1 T00421049
K0V4 101915Z AUTO 26011KT 10SM CLR 04/M05 A3009 RMK AO1 T00411050
K0V4 101855Z AUTO 25010KT 10SM SCT042 04/M05 A3009 RMK AO1 T00381046
K0V4 101835Z AUTO 25007KT 10SM SCT044 04/M05 A3010 RMK AO1 T00401049
K0V4 101815Z AUTO 27012G17KT 10SM CLR 04/M05 A3011 RMK AO1 T00371047
K0V4 101755Z AUTO 26009G14KT 10SM CLR 04/M05 A3011 RMK AO1 T00361047 10036 21031
K0V4 101735Z AUTO 27010G14KT 10SM SCT040 04/M05 A3012 RMK AO1 T00351048
K0V4 101715Z AUTO 28007KT 10SM SCT040 03/M05 A3013 RMK AO1 T00281047
K0V4 101655Z AUTO 28013G19KT 10SM SCT042 03/M05 A3013 RMK AO1 T00301050
K0V4 101635Z AUTO 24008G14KT 10SM SCT040 03/M05 A3014 RMK AO1 T00261048
K0V4 101615Z AUTO 29011G17KT 10SM SCT038 03/M04 A3014 RMK AO1 T00261044
K0V4 101555Z AUTO 25010G16KT 10SM SCT040 03/M04 A3014 RMK AO1 T00251038
K0V4 101535Z AUTO 23007KT 10SM SCT040 03/M03 A3015 RMK AO1 T00261034
K0V4 101515Z AUTO 25008KT 10SM CLR 02/M04 A3014 RMK AO1 T00201036
K0V4 101455Z AUTO 27010KT 10SM CLR 01/M03 A3013 RMK AO1 T00131035
K0V4 101435Z AUTO 23007KT 10SM CLR 01/M04 A3012 RMK AO1 T00111040
K0V4 101415Z AUTO 25007KT 10SM CLR 00/M04 A3011 RMK AO1 T00031041
K0V4 101355Z AUTO 24005KT 10SM CLR 00/M05 A3010 RMK AO1 T10021046
K0V4 101335Z AUTO 25006KT 10SM CLR M03/M05 A3010 RMK AO1 T10271046
K0V4 101315Z AUTO 25003KT 10SM CLR M03/M05 A3008 RMK AO1 T10271046
K0V4 101255Z AUTO 23004KT 10SM CLR M03/M05 A3008 RMK AO1 T10291050
K0V4 101235Z AUTO 10SM CLR M02/M04 A3007 RMK AO1 T10161043
K0V4 101215Z AUTO 21005KT 10SM SCT050 M02/M05 A3007 RMK AO1 T10251046
K0V4 101155Z AUTO 19006KT 10SM SCT050 M02/M04 A3006 RMK AO1 7//// T10231042 10005 21024
K0V4 101135Z AUTO 23005KT 10SM BKN050 M01/M05 A3005 RMK AO1 T10151046
K0V4 101115Z AUTO 23007KT 10SM OVC050 M01/M04 A3004 RMK AO1 T10071045
K0V4 101055Z AUTO 17004KT 10SM BKN050 M01/M05 A3003 RMK AO1 T10131047
K0V4 101035Z AUTO 26005KT 10SM OVC050 M02/M05 A3002 RMK AO1 T10161049
K0V4 101015Z AUTO 22005KT 10SM OVC055 M01/M05 A3001 RMK AO1 T10101046
K0V4 100955Z AUTO 00000KT 10SM SCT055 M02/M05 A3000 RMK AO1 T10181050
K0V4 100935Z AUTO 23003KT 10SM CLR M01/M05 A2999 RMK AO1 T10151053
K0V4 100915Z AUTO 24006KT 10SM CLR M02/M05 A2998 RMK AO1 T10181050
K0V4 100855Z AUTO 26006KT 10SM CLR M01/M05 A2998 RMK AO1 T10081052
K0V4 100835Z AUTO 27005KT 10SM CLR M01/M05 A2997 RMK AO1 T10141048
K0V4 100815Z AUTO 25005KT 10SM SCT050 SCT065 M01/M04 A2996 RMK AO1 T10151044
K0V4 100755Z AUTO 27009KT 10SM OVC065 00/M04 A2996 RMK AO1 T10011039
K0V4 100735Z AUTO 26006KT 10SM BKN065 00/M04 A2994 RMK AO1 T10051037
K0V4 100715Z AUTO 27006KT 10SM SCT065 00/M03 A2993 RMK AO1 T00001035
K0V4 100655Z AUTO 27008KT 10SM CLR 01/M04 A2992 RMK AO1 T00051037
K0V4 100635Z AUTO 26009G16KT 10SM SCT055 00/M03 A2992 RMK AO1 T00011029
K0V4 100615Z AUTO 24005KT 10SM OVC055 00/M02 A2991 RMK AO1 T10011023
K0V4 100555Z AUTO 26006KT 10SM BKN065 00/M02 A2990 RMK AO1 T00001024 10010 21007
K0V4 100535Z AUTO 27005KT 10SM SCT065 00/M01 A2989 RMK AO1 T00001012
K0V4 100515Z AUTO 26005KT 7SM SCT110 M01/M01 A2989 RMK AO1 T10071007
K0V4 100455Z AUTO 24005KT 7SM OVC120 00/00 A2988 RMK AO1 T00000000
K0V4 100435Z AUTO 24005KT 5SM SCT095 OVC120 00/00 A2988 RMK AO1 T00000000
K0V4 100415Z AUTO 23006KT 10SM SCT095 OVC120 01/01 A2988 RMK AO1 T00060005
K0V4 100355Z AUTO 22004KT 10SM BKN095 OVC120 01/01 A2987 RMK AO1 T00050005
K0V4 100335Z AUTO 21004KT 10SM SCT070 OVC085 01/01 A2986 RMK AO1 T00060005
K0V4 100315Z AUTO 20003KT 10SM SCT060 OVC070 01/01 A2986 RMK AO1 T00070006
K0V4 100255Z AUTO 22003KT 10SM SCT060 BKN070 OVC080 01/01 A2986 RMK AO1 T00070006
K0V4 100235Z AUTO 20003KT 10SM SCT012 BKN070 OVC090 01/01 A2986 RMK AO1 T00080007
K0V4 100215Z AUTO 23004KT 10SM BKN012 OVC100 01/01 A2985 RMK AO1 T00080007
K0V4 100155Z AUTO 23005KT 10SM OVC012 01/01 A2985 RMK AO1 T00090008
K0V4 100135Z AUTO 24004KT 10SM OVC010 01/01 A2985 RMK AO1 T00100010
K0V4 100115Z AUTO 23005KT 10SM OVC008 01/01 A2985 RMK AO1 T00100010
K0V4 100055Z AUTO 23004KT 10SM OVC010 01/01 A2985 RMK AO1 T00100008
K0V4 100035Z AUTO 23005KT 10SM OVC008 01/01 A2985 RMK AO1 T00080007
K0V4 100015Z AUTO 23004KT 7SM BKN003 OVC008 01/01 A2984 RMK AO1 T00070006
K0V4 092355Z AUTO 24007KT 10SM OVC003 01/01 A2983 RMK AO1 T00060005 10011 20005
K0V4 092335Z AUTO 24006KT 10SM OVC003 01/01 A2982 RMK AO1 T00060005
K0V4 092315Z AUTO 21004KT 7SM OVC003 01/01 A2981 RMK AO1 T00050005
K0V4 092255Z AUTO 21005KT 5SM OVC003 01/01 A2980 RMK AO1 T00050005
K0V4 092235Z AUTO 21004KT 7SM OVC003 01/01 A2980 RMK AO1 T00070006
K0V4 092215Z AUTO 00000KT 5SM BKN003 OVC090 01/01 A2980 RMK AO1 T00060005
K0V4 092155Z AUTO 00000KT 5SM BKN090 OVC110 01/01 A2980 RMK AO1 T00070006
K0V4 092135Z AUTO 00000KT 4SM SCT070 BKN090 OVC110 01/01 A2980 RMK AO1 T00100008
K0V4 092115Z AUTO 00000KT 4SM SCT010 BKN070 OVC090 01/01 A2980 RMK AO1 T00100008
K0V4 092055Z AUTO 23003KT 2 1/2SM OVC008 01/01 A2981 RMK AO1 T00090008
K0V4 092035Z AUTO 26003KT 1 1/2SM SCT006 BKN011 OVC016 01/01 A2980 RMK AO1 T00100008
K0V4 092015Z AUTO 00000KT 1 3/4SM SCT006 BKN016 OVC034 01/01 A2980 RMK AO1 VIS 1V3 T00110010
K0V4 091955Z AUTO 00000KT 2 1/2SM SCT005 BKN016 OVC032 01/01 A2980 RMK AO1 VIS 1 1/2V4 T00110010
K0V4 091935Z AUTO 00000KT 3SM BKN005 BKN012 OVC050 01/01 A2978 RMK AO1 T00100010
K0V4 091915Z AUTO 00000KT 5SM BKN007 BKN012 OVC048 01/01 A2978 RMK AO1 T00100010
K0V4 091855Z AUTO 00000KT 4SM SCT004 BKN009 OVC050 01/01 A2978 RMK AO1 T00100009
K0V4 091835Z AUTO 00000KT 2SM SCT004 SCT009 OVC048 01/01 A2978 RMK AO1 T00100008
K0V4 091815Z AUTO 00000KT 3SM SCT007 SCT017 OVC050 01/01 A2979 RMK AO1 T00100008
K0V4 091755Z AUTO 00000KT 5SM SCT006 SCT009 OVC050 01/01 A2980 RMK AO1 6//// T00100008
K0V4 091735Z AUTO 36004KT 5SM BKN006 BKN010 OVC050 01/01 A2980 RMK AO1 T00080007
K0V4 091715Z AUTO 00000KT 3SM OVC004 01/01 A2982 RMK AO1 T00080007
K0V4 091655Z AUTO 00000KT 1 3/4SM BKN004 OVC008 01/01 A2983 RMK AO1 T00060005
K0V4 091635Z AUTO 00000KT 1 1/2SM SCT004 BKN008 OVC031 01/01 A2985 RMK AO1 T00050005
K0V4 091620Z AUTO 00000KT 2SM SCT004 BKN007 OVC035 01/01 A2986 RMK AO1 T00050005
K0V4 091555Z AUTO 00000KT 2 1/2SM OVC005 01/00 A2988 RMK AO1 T00050004
K0V4 091535Z AUTO 00000KT 2 1/2SM BKN005 BKN019 OVC027 01/00 A2987 RMK AO1 T00050003
K0V4 091515Z AUTO 01003KT 01/01 A2987 RMK AO1 T00050005
K0V4 091340Z AUTO 1 1/4SM OVC005 00/00 A2988 RMK AO1 T00010000
K0V4 091315Z AUTO 1SM OVC005 00/00 A2991 RMK AO1 T00010000
K0V4 091255Z AUTO 1SM OVC005 00/00 A2989 RMK AO1 T00010000
K0V4 091235Z AUTO 1 1/2SM OVC007 00/00 A2991 RMK AO1 T00010000